Time;durP1;ratioP1;P1;durP2;ratioP2;P2;SDS_P1;SDS_P2;PMS_P1;PMS_P2;Temp;Humidity;BMP_temperature;BMP_pressure;BME280_temperature;BME280_humidity;BME280_pressure;Samples;Min_cycle;Max_cycle;Signal;HPM_P1;HPM_P2
2022/04/09 00:00:32;;;;;;;5.80;1.95;;;6.20;99.90;;;;;;4143869;28;20096;-64
2022/04/09 00:02:33;;;;;;;7.93;2.70;;;6.20;99.90;;;;;;4144486;28;20128;-64
2022/04/09 00:04:34;;;;;;;10.13;2.50;;;6.10;99.90;;;;;;4144435;28;20034;-64
2022/04/09 00:06:34;;;;;;;6.30;2.15;;;6.10;99.90;;;;;;4144086;28;20052;-64
2022/04/09 00:08:35;;;;;;;7.75;2.92;;;6.10;99.90;;;;;;4144912;28;20033;-64
2022/04/09 00:10:35;;;;;;;14.65;2.90;;;6.20;99.90;;;;;;4143962;28;20473;-64
2022/04/09 00:12:37;;;;;;;8.00;2.50;;;6.10;99.90;;;;;;4144140;28;20030;-63
2022/04/09 00:14:38;;;;;;;7.72;2.70;;;6.20;99.90;;;;;;4148732;28;20120;-63
2022/04/09 00:16:41;;;;;;;16.10;3.03;;;6.20;99.90;;;;;;4153384;28;20092;-63
2022/04/09 00:18:43;;;;;;;11.35;2.75;;;6.10;99.90;;;;;;4147653;28;20026;-63
2022/04/09 00:20:44;;;;;;;12.35;2.80;;;6.10;99.90;;;;;;4149468;28;21534;-66
2022/04/09 00:22:45;;;;;;;10.55;2.67;;;6.10;99.90;;;;;;4146272;28;20069;-64
2022/04/09 00:24:46;;;;;;;8.88;2.90;;;6.10;99.90;;;;;;4153448;28;20045;-65
2022/04/09 00:26:46;;;;;;;6.40;2.35;;;6.20;99.90;;;;;;4150261;28;20025;-64
2022/04/09 00:28:47;;;;;;;7.78;2.42;;;6.20;99.90;;;;;;4148071;28;20058;-63
2022/04/09 00:30:47;;;;;;;9.02;2.40;;;6.10;99.90;;;;;;4149367;28;20496;-64
2022/04/09 00:32:49;;;;;;;8.00;2.60;;;6.10;99.90;;;;;;4133621;28;20042;-64
2022/04/09 00:34:50;;;;;;;12.35;2.83;;;6.20;99.90;;;;;;4152323;28;20464;-64
2022/04/09 00:36:50;;;;;;;9.38;2.45;;;6.10;99.90;;;;;;4152509;28;20034;-64
2022/04/09 00:38:51;;;;;;;10.05;2.67;;;6.10;99.90;;;;;;4153080;28;20034;-64
2022/04/09 00:40:52;;;;;;;9.13;2.80;;;6.10;99.90;;;;;;4153066;28;20481;-64
2022/04/09 00:42:53;;;;;;;9.70;2.88;;;6.10;99.90;;;;;;4148934;28;20038;-64
2022/04/09 00:44:55;;;;;;;11.90;3.00;;;6.10;99.90;;;;;;4152877;28;20034;-64
2022/04/09 00:46:55;;;;;;;16.40;3.35;;;6.00;99.90;;;;;;4151981;28;20393;-64
2022/04/09 00:48:56;;;;;;;11.70;2.90;;;6.00;99.90;;;;;;4129857;28;20034;-64
2022/04/09 00:50:57;;;;;;;12.63;2.95;;;6.00;99.90;;;;;;4151659;28;20039;-64
2022/04/09 00:52:59;;;;;;;7.13;2.85;;;5.90;99.90;;;;;;4150965;28;20033;-65
2022/04/09 00:55:03;;;;;;;9.32;2.78;;;5.90;99.90;;;;;;4153488;28;20048;-64
2022/04/09 00:57:05;;;;;;;10.10;3.35;;;5.90;99.90;;;;;;4152086;28;20084;-64
2022/04/09 00:59:11;;;;;;;12.52;3.42;;;6.00;99.90;;;;;;4150667;28;20418;-64
2022/04/09 01:01:12;;;;;;;17.23;3.50;;;5.90;99.90;;;;;;4152094;28;20172;-64
2022/04/09 01:03:19;;;;;;;10.27;3.50;;;5.90;99.90;;;;;;4152904;28;20113;-64
2022/04/09 01:05:20;;;;;;;13.23;2.83;;;5.90;99.90;;;;;;4151206;28;20033;-64
2022/04/09 01:07:21;;;;;;;11.75;3.10;;;5.90;99.90;;;;;;4152169;28;20038;-64
2022/04/09 01:09:21;;;;;;;15.13;3.25;;;5.90;99.90;;;;;;4152937;28;20026;-64
2022/04/09 01:11:22;;;;;;;11.93;3.28;;;6.00;99.90;;;;;;4148888;28;20036;-64
2022/04/09 01:13:23;;;;;;;11.82;3.10;;;5.90;99.90;;;;;;4151797;28;20413;-64
2022/04/09 01:15:24;;;;;;;9.32;3.28;;;5.90;99.90;;;;;;4151697;28;20129;-64
2022/04/09 01:17:24;;;;;;;9.73;2.60;;;5.90;99.90;;;;;;4155000;28;20112;-64
2022/04/09 01:19:25;;;;;;;12.05;3.17;;;6.00;99.90;;;;;;4150928;28;20033;-64
2022/04/09 01:21:27;;;;;;;13.48;3.13;;;5.90;99.90;;;;;;4149639;28;20498;-65
2022/04/09 01:23:29;;;;;;;14.25;3.08;;;5.90;99.90;;;;;;4152033;28;20486;-64
2022/04/09 01:25:29;;;;;;;12.98;2.95;;;5.90;99.90;;;;;;4151298;28;20485;-64
2022/04/09 01:27:30;;;;;;;11.98;3.33;;;5.90;99.90;;;;;;4151199;28;20128;-65
2022/04/09 01:29:30;;;;;;;14.60;3.35;;;5.90;99.90;;;;;;4147982;28;20117;-64
2022/04/09 01:31:31;;;;;;;15.63;3.40;;;5.90;99.90;;;;;;4150756;28;20091;-64
2022/04/09 01:33:32;;;;;;;10.65;2.78;;;5.80;99.90;;;;;;4144737;28;20038;-64
2022/04/09 01:35:32;;;;;;;17.50;3.30;;;5.80;99.90;;;;;;4143678;28;20069;-64
2022/04/09 01:37:33;;;;;;;13.27;3.00;;;5.80;99.90;;;;;;4144651;28;20034;-64
2022/04/09 01:39:33;;;;;;;13.57;2.95;;;5.80;99.90;;;;;;4144430;28;20056;-64
2022/04/09 01:41:34;;;;;;;12.98;3.05;;;5.80;99.90;;;;;;4143102;28;20034;-64
2022/04/09 01:43:35;;;;;;;18.70;3.60;;;5.80;99.90;;;;;;4143260;28;20092;-64
2022/04/09 01:45:36;;;;;;;13.05;2.75;;;5.70;99.90;;;;;;4143085;28;20422;-64
2022/04/09 01:47:41;;;;;;;16.95;3.08;;;5.70;99.90;;;;;;4143668;28;20143;-64
2022/04/09 01:49:41;;;;;;;13.23;3.30;;;5.70;99.90;;;;;;4143412;28;20116;-64
2022/04/09 01:51:42;;;;;;;11.32;2.75;;;5.80;99.90;;;;;;4143661;28;20044;-64
2022/04/09 01:53:42;;;;;;;12.50;2.53;;;5.80;99.90;;;;;;4144208;28;20516;-64
2022/04/09 01:55:43;;;;;;;13.10;3.25;;;5.70;99.90;;;;;;4143647;28;20560;-64
2022/04/09 01:57:44;;;;;;;11.15;2.65;;;5.70;99.90;;;;;;4144316;28;20482;-64
2022/04/09 01:59:45;;;;;;;8.32;2.63;;;5.70;99.90;;;;;;4144012;28;23041;-64
2022/04/09 02:01:48;;;;;;;14.60;3.35;;;5.70;99.90;;;;;;4143877;28;20041;-64
2022/04/09 02:03:48;;;;;;;8.27;2.83;;;5.70;99.90;;;;;;4144059;28;20046;-65
2022/04/09 02:05:49;;;;;;;11.50;2.55;;;5.70;99.90;;;;;;4143443;28;20034;-64
2022/04/09 02:07:49;;;;;;;17.88;3.15;;;5.80;99.90;;;;;;4144312;28;20146;-64
2022/04/09 02:09:50;;;;;;;14.80;3.20;;;5.80;99.90;;;;;;4142806;28;20038;-64
2022/04/09 02:11:51;;;;;;;11.02;2.45;;;5.70;99.90;;;;;;4146323;28;20037;-64
2022/04/09 02:13:52;;;;;;;18.50;3.47;;;5.70;99.90;;;;;;4147434;28;20037;-64
2022/04/09 02:15:52;;;;;;;14.88;3.00;;;5.70;99.90;;;;;;4135568;28;20034;-64
2022/04/09 02:17:53;;;;;;;19.05;3.25;;;5.70;99.90;;;;;;4146605;28;20057;-64
2022/04/09 02:19:53;;;;;;;13.57;3.33;;;5.70;99.90;;;;;;4146555;28;20037;-64
2022/04/09 02:21:54;;;;;;;14.77;2.65;;;5.70;99.90;;;;;;4145389;28;20030;-64
2022/04/09 02:23:54;;;;;;;11.23;2.47;;;5.70;99.90;;;;;;4146549;28;20084;-64
2022/04/09 02:25:55;;;;;;;8.18;2.70;;;5.70;99.90;;;;;;4145750;28;20121;-64
2022/04/09 02:27:55;;;;;;;20.00;3.83;;;5.70;99.90;;;;;;4146938;28;20547;-64
2022/04/09 02:29:56;;;;;;;17.90;3.53;;;5.70;99.90;;;;;;4147376;28;20076;-65
2022/04/09 02:31:57;;;;;;;12.50;2.58;;;5.70;99.90;;;;;;4145681;28;20037;-64
2022/04/09 02:33:58;;;;;;;22.58;3.17;;;5.70;99.90;;;;;;4147278;28;20046;-65
2022/04/09 02:35:58;;;;;;;10.73;3.13;;;5.70;99.90;;;;;;4146454;28;20044;-64
2022/04/09 02:37:59;;;;;;;17.88;3.35;;;5.80;99.90;;;;;;4147057;28;20030;-64
2022/04/09 02:40:01;;;;;;;13.85;3.17;;;5.80;99.90;;;;;;4147115;28;20060;-64
2022/04/09 02:42:01;;;;;;;13.18;3.38;;;5.70;99.90;;;;;;4146703;28;20041;-64
2022/04/09 02:44:02;;;;;;;9.20;2.92;;;5.70;99.90;;;;;;4147112;28;20508;-64
2022/04/09 02:46:03;;;;;;;16.33;3.70;;;5.70;99.90;;;;;;4145608;28;20030;-64
2022/04/09 02:48:04;;;;;;;15.85;3.38;;;5.70;99.90;;;;;;4141731;28;20061;-64
2022/04/09 02:50:09;;;;;;;17.73;3.35;;;5.70;99.90;;;;;;4145841;28;20038;-64
2022/04/09 02:52:09;;;;;;;10.93;2.72;;;5.70;99.90;;;;;;4143036;28;20037;-64
2022/04/09 02:54:15;;;;;;;13.00;2.78;;;5.70;99.90;;;;;;4145419;28;20037;-64
2022/04/09 02:56:15;;;;;;;9.57;2.72;;;5.70;99.90;;;;;;4145019;28;20123;-64
2022/04/09 02:58:16;;;;;;;11.55;2.90;;;5.70;99.90;;;;;;4144770;28;20125;-63
2022/04/09 03:00:17;;;;;;;13.32;3.42;;;5.70;99.90;;;;;;4145166;28;20041;-64
2022/04/09 03:02:17;;;;;;;14.40;3.60;;;5.70;99.90;;;;;;4129171;28;20609;-64
2022/04/09 03:04:18;;;;;;;10.88;2.72;;;5.70;99.90;;;;;;4146759;28;20120;-64
2022/04/09 03:06:19;;;;;;;7.75;2.58;;;5.70;99.90;;;;;;4145787;28;20448;-68
2022/04/09 03:08:20;;;;;;;10.75;2.70;;;5.70;99.90;;;;;;4146352;28;20053;-64
2022/04/09 03:10:20;;;;;;;12.85;3.05;;;5.70;99.90;;;;;;4146133;28;20034;-64
2022/04/09 03:12:21;;;;;;;14.98;3.03;;;5.70;99.90;;;;;;4146446;28;20038;-64
2022/04/09 03:14:21;;;;;;;12.63;2.95;;;5.70;99.90;;;;;;4146251;28;20026;-65
2022/04/09 03:16:22;;;;;;;12.77;3.03;;;5.70;99.90;;;;;;4145631;28;20034;-64
2022/04/09 03:18:23;;;;;;;8.43;2.80;;;5.60;99.90;;;;;;4146300;28;20036;-64
2022/04/09 03:20:23;;;;;;;12.95;3.25;;;5.60;99.90;;;;;;4145661;28;20092;-64
2022/04/09 03:22:24;;;;;;;15.80;3.33;;;5.70;99.90;;;;;;4145938;28;20106;-64
2022/04/09 03:24:24;;;;;;;8.90;3.08;;;5.70;99.90;;;;;;4146066;28;20038;-64
2022/04/09 03:26:25;;;;;;;16.30;3.80;;;5.70;99.90;;;;;;4145538;28;20402;-64
2022/04/09 03:28:26;;;;;;;14.05;3.15;;;5.70;99.90;;;;;;4145271;28;20038;-64
2022/04/09 03:30:27;;;;;;;13.13;3.05;;;5.70;99.90;;;;;;4144971;28;20038;-65
2022/04/09 03:32:28;;;;;;;14.18;2.75;;;5.70;99.90;;;;;;4145942;28;20092;-64
2022/04/09 03:34:29;;;;;;;15.63;3.17;;;5.70;99.90;;;;;;4146065;28;20037;-64
2022/04/09 03:36:30;;;;;;;14.13;3.42;;;5.70;99.90;;;;;;4145511;28;20048;-64
2022/04/09 03:38:30;;;;;;;17.60;3.55;;;5.70;99.90;;;;;;4149125;28;20481;-64
2022/04/09 03:40:31;;;;;;;12.10;3.25;;;5.70;99.90;;;;;;4145468;28;20105;-64
2022/04/09 03:42:32;;;;;;;21.33;3.85;;;5.70;99.90;;;;;;4146248;28;20033;-64
2022/04/09 03:44:33;;;;;;;14.32;3.03;;;5.60;99.90;;;;;;4145803;28;20041;-64
2022/04/09 03:46:33;;;;;;;11.52;2.70;;;5.60;99.90;;;;;;4145033;28;20088;-64
2022/04/09 03:48:34;;;;;;;19.92;3.63;;;5.60;99.90;;;;;;4145923;28;20378;-64
2022/04/09 03:50:36;;;;;;;14.02;3.35;;;5.60;99.90;;;;;;4145393;28;20069;-64
2022/04/09 03:52:38;;;;;;;17.33;3.95;;;5.60;99.90;;;;;;4145943;28;20030;-64
2022/04/09 03:54:39;;;;;;;12.90;2.80;;;5.60;99.90;;;;;;4145546;28;20095;-64
2022/04/09 03:56:41;;;;;;;12.02;3.42;;;5.60;99.90;;;;;;4145239;28;20065;-65
2022/04/09 03:58:43;;;;;;;14.02;3.53;;;5.60;99.90;;;;;;4128027;28;20035;-64
2022/04/09 04:00:45;;;;;;;18.58;3.25;;;5.60;99.90;;;;;;4144913;28;20370;-64
2022/04/09 04:02:45;;;;;;;13.55;2.90;;;5.70;99.90;;;;;;4144465;28;20061;-64
2022/04/09 04:04:46;;;;;;;11.85;2.58;;;5.60;99.90;;;;;;4145531;28;20073;-65
2022/04/09 04:06:48;;;;;;;17.02;3.47;;;5.60;99.90;;;;;;4144622;28;20045;-65
2022/04/09 04:08:48;;;;;;;14.23;3.35;;;5.60;99.90;;;;;;4144908;28;20034;-63
2022/04/09 04:10:49;;;;;;;19.65;3.55;;;5.60;99.90;;;;;;4144703;28;20099;-63
2022/04/09 04:12:50;;;;;;;9.48;2.55;;;5.60;99.90;;;;;;4144325;28;20065;-67
2022/04/09 04:14:50;;;;;;;15.70;3.58;;;5.60;99.90;;;;;;4145423;28;20037;-64
2022/04/09 04:16:51;;;;;;;10.30;2.67;;;5.60;99.90;;;;;;4144216;28;20034;-65
2022/04/09 04:18:51;;;;;;;11.57;2.83;;;5.60;99.90;;;;;;4144785;28;20104;-64
2022/04/09 04:20:52;;;;;;;8.02;2.40;;;5.50;99.90;;;;;;4144786;28;20038;-65
2022/04/09 04:22:53;;;;;;;14.50;3.17;;;5.60;99.90;;;;;;4144781;28;20034;-64
2022/04/09 04:24:54;;;;;;;13.00;2.80;;;5.60;99.90;;;;;;4144517;28;20042;-64
2022/04/09 04:26:54;;;;;;;12.55;2.97;;;5.60;99.90;;;;;;4143682;28;20042;-64
2022/04/09 04:28:55;;;;;;;13.88;3.58;;;5.60;99.90;;;;;;4145003;28;20520;-64
2022/04/09 04:30:55;;;;;;;10.68;2.50;;;5.60;99.90;;;;;;4144304;28;20112;-64
2022/04/09 04:32:56;;;;;;;13.90;3.38;;;5.60;99.90;;;;;;4126242;28;20034;-64
2022/04/09 04:34:57;;;;;;;10.27;2.90;;;5.60;99.90;;;;;;4143456;28;20128;-65
2022/04/09 04:36:57;;;;;;;10.57;2.50;;;5.60;99.90;;;;;;4160468;28;20529;-64
2022/04/09 04:38:58;;;;;;;10.45;3.13;;;5.70;99.90;;;;;;4149683;28;20026;-64
2022/04/09 04:41:00;;;;;;;11.38;2.90;;;5.60;99.90;;;;;;4146607;28;20026;-64
2022/04/09 04:43:00;;;;;;;15.93;2.92;;;5.70;99.90;;;;;;4146434;28;20481;-64
2022/04/09 04:45:01;;;;;;;13.10;3.25;;;5.70;99.90;;;;;;4150378;28;20044;-64
2022/04/09 04:47:02;;;;;;;15.57;2.83;;;5.70;99.90;;;;;;4146474;28;20041;-64
2022/04/09 04:49:03;;;;;;;13.48;3.10;;;5.60;99.90;;;;;;4145481;28;20037;-64
2022/04/09 04:51:04;;;;;;;11.77;2.63;;;5.70;99.90;;;;;;4145681;28;20457;-64
2022/04/09 04:53:04;;;;;;;16.83;3.83;;;5.70;99.90;;;;;;4148672;28;20105;-64
2022/04/09 04:55:06;;;;;;;15.43;3.28;;;5.70;99.90;;;;;;4149864;28;20048;-65
2022/04/09 04:57:06;;;;;;;9.60;2.50;;;5.70;99.90;;;;;;4149692;28;20026;-64
2022/04/09 04:59:07;;;;;;;11.10;3.03;;;5.70;99.90;;;;;;4130161;28;20034;-64
2022/04/09 05:01:08;;;;;;;10.93;3.13;;;5.80;99.90;;;;;;4152381;28;20039;-64
2022/04/09 05:03:09;;;;;;;11.43;2.42;;;5.80;99.90;;;;;;4151942;28;20018;-64
2022/04/09 05:05:09;;;;;;;13.65;3.33;;;5.70;99.90;;;;;;4149727;28;20041;-64
2022/04/09 05:07:10;;;;;;;12.35;3.20;;;5.70;99.90;;;;;;4152052;28;20052;-64
2022/04/09 05:09:13;;;;;;;12.57;3.53;;;5.70;99.90;;;;;;4151133;28;20041;-64
2022/04/09 05:11:13;;;;;;;11.88;3.10;;;5.70;99.90;;;;;;4131944;28;20030;-64
2022/04/09 05:13:14;;;;;;;14.10;3.75;;;5.70;99.90;;;;;;4130821;28;20106;-64
2022/04/09 05:15:16;;;;;;;16.50;3.75;;;5.60;99.90;;;;;;4150260;28;20053;-64
2022/04/09 05:17:16;;;;;;;10.02;2.40;;;5.70;99.90;;;;;;4151856;28;20038;-64
2022/04/09 05:19:17;;;;;;;16.95;2.65;;;5.70;99.90;;;;;;4151059;28;20044;-64
2022/04/09 05:21:18;;;;;;;9.40;2.47;;;5.70;99.90;;;;;;4147531;28;20030;-63
2022/04/09 05:23:18;;;;;;;13.13;2.72;;;5.80;99.90;;;;;;4126727;28;20437;-64
2022/04/09 05:25:19;;;;;;;13.85;3.03;;;5.80;99.90;;;;;;4143834;28;20045;-64
2022/04/09 05:27:21;;;;;;;15.45;3.47;;;5.70;99.90;;;;;;4147461;28;20083;-64
2022/04/09 05:29:22;;;;;;;15.60;3.10;;;5.70;99.90;;;;;;4150415;28;20056;-65
2022/04/09 05:31:27;;;;;;;11.68;3.13;;;5.70;99.90;;;;;;4147024;28;20038;-65
2022/04/09 05:33:28;;;;;;;11.65;2.63;;;5.70;99.90;;;;;;4149039;28;20122;-64
2022/04/09 05:35:29;;;;;;;9.40;2.78;;;5.70;99.90;;;;;;4147528;28;20034;-65
2022/04/09 05:37:31;;;;;;;12.00;2.70;;;5.60;99.90;;;;;;4143969;28;20049;-64
2022/04/09 05:39:31;;;;;;;19.50;3.07;;;5.70;99.90;;;;;;4144433;28;20064;-64
2022/04/09 05:41:32;;;;;;;11.65;2.90;;;5.70;99.90;;;;;;4143446;28;20541;-64
2022/04/09 05:43:33;;;;;;;12.70;2.92;;;5.70;99.90;;;;;;4144580;28;20053;-64
2022/04/09 05:45:34;;;;;;;11.80;2.75;;;5.70;99.90;;;;;;4144069;28;20037;-64
2022/04/09 05:47:45;;;;;;;9.48;3.00;;;5.80;99.90;;;;;;4143986;28;20512;-64
2022/04/09 05:49:46;;;;;;;14.00;3.50;;;5.80;99.90;;;;;;4143498;28;20030;-64
2022/04/09 05:51:48;;;;;;;10.77;2.38;;;5.80;99.90;;;;;;4143426;28;20072;-64
2022/04/09 05:53:48;;;;;;;13.65;3.17;;;5.80;99.90;;;;;;4122573;28;20041;-64
2022/04/09 05:55:49;;;;;;;6.55;2.33;;;5.90;99.90;;;;;;4143767;28;20066;-64
2022/04/09 05:57:49;;;;;;;12.65;2.83;;;5.90;99.90;;;;;;4145427;28;20038;-64
2022/04/09 05:59:50;;;;;;;9.60;2.58;;;5.80;99.90;;;;;;4146817;28;20077;-64
2022/04/09 06:01:51;;;;;;;14.43;3.10;;;5.90;99.90;;;;;;4143541;28;20113;-64
2022/04/09 06:03:51;;;;;;;16.52;3.50;;;5.90;99.90;;;;;;4146465;28;20485;-64
2022/04/09 06:05:52;;;;;;;13.65;3.20;;;6.00;99.90;;;;;;4148267;28;20545;-66
2022/04/09 06:07:52;;;;;;;12.82;2.95;;;5.90;99.90;;;;;;4148186;28;20081;-64
2022/04/09 06:09:53;;;;;;;14.23;2.92;;;5.90;99.90;;;;;;4149009;28;20034;-64
2022/04/09 06:11:53;;;;;;;10.27;2.30;;;5.90;99.90;;;;;;4145018;28;20378;-64
2022/04/09 06:13:54;;;;;;;15.57;2.58;;;5.90;99.90;;;;;;4149572;28;20083;-64
2022/04/09 06:15:54;;;;;;;8.23;2.35;;;6.00;99.90;;;;;;4146183;28;20038;-64
2022/04/09 06:17:55;;;;;;;13.85;2.58;;;6.00;99.90;;;;;;4150661;28;20485;-64
2022/04/09 06:19:56;;;;;;;17.77;3.30;;;6.10;99.90;;;;;;4148653;28;20079;-64
2022/04/09 06:21:57;;;;;;;11.88;3.00;;;6.10;99.90;;;;;;4146145;28;20033;-64
2022/04/09 06:23:57;;;;;;;13.65;3.13;;;6.10;99.90;;;;;;4149759;28;20065;-65
2022/04/09 06:25:58;;;;;;;14.98;2.30;;;6.20;99.90;;;;;;4147320;28;20393;-65
2022/04/09 06:27:59;;;;;;;12.30;2.63;;;6.30;99.90;;;;;;4145378;28;20022;-64
2022/04/09 06:30:04;;;;;;;15.85;3.50;;;6.40;99.90;;;;;;4150105;28;20030;-64
2022/04/09 06:32:05;;;;;;;7.43;1.98;;;6.40;99.90;;;;;;4147979;28;20037;-64
2022/04/09 06:34:06;;;;;;;13.75;3.03;;;6.50;99.90;;;;;;4145719;28;20056;-64
2022/04/09 06:36:07;;;;;;;11.82;3.15;;;6.50;99.90;;;;;;4149224;28;20050;-64
2022/04/09 06:38:08;;;;;;;9.38;2.55;;;6.60;99.90;;;;;;4148916;28;20045;-64
2022/04/09 06:40:09;;;;;;;15.55;3.45;;;6.70;99.90;;;;;;4147557;28;20511;-67
2022/04/09 06:42:10;;;;;;;10.32;2.15;;;6.80;99.90;;;;;;4140529;28;20029;-64
2022/04/09 06:44:11;;;;;;;12.13;2.90;;;6.90;99.90;;;;;;4148929;28;20037;-64
2022/04/09 06:46:12;;;;;;;20.35;3.42;;;6.90;99.90;;;;;;4142688;28;20109;-64
2022/04/09 06:48:12;;;;;;;10.15;2.65;;;7.00;99.90;;;;;;4148478;28;20065;-64
2022/04/09 06:50:14;;;;;;;17.98;3.50;;;7.20;99.90;;;;;;4139248;28;20041;-65
2022/04/09 06:52:14;;;;;;;12.88;3.05;;;7.30;99.90;;;;;;4145335;28;20030;-64
2022/04/09 06:54:15;;;;;;;13.88;3.25;;;7.40;99.90;;;;;;4144117;28;20026;-64
2022/04/09 06:56:15;;;;;;;15.07;2.90;;;7.50;99.90;;;;;;4143411;28;20034;-65
2022/04/09 06:58:16;;;;;;;9.00;2.70;;;7.70;99.90;;;;;;4146479;28;20091;-65
2022/04/09 07:00:17;;;;;;;9.02;2.53;;;7.90;99.90;;;;;;4145158;28;20030;-65
2022/04/09 07:02:17;;;;;;;19.70;3.22;;;8.20;99.90;;;;;;4145061;28;20041;-65
2022/04/09 07:04:18;;;;;;;17.15;3.25;;;8.50;99.90;;;;;;4145864;28;20042;-65
2022/04/09 07:06:18;;;;;;;11.48;2.70;;;8.70;99.90;;;;;;4144923;28;20042;-65
2022/04/09 07:08:20;;;;;;;13.38;2.50;;;9.00;99.90;;;;;;4147108;28;20037;-65
2022/04/09 07:10:20;;;;;;;12.23;2.85;;;9.10;99.90;;;;;;4146907;28;20045;-65
2022/04/09 07:12:22;;;;;;;14.35;2.67;;;9.00;99.90;;;;;;4148293;28;20038;-65
2022/04/09 07:14:23;;;;;;;7.00;2.40;;;9.00;99.90;;;;;;4151152;28;20492;-66
2022/04/09 07:16:24;;;;;;;13.25;3.03;;;8.90;99.90;;;;;;4151609;28;20044;-65
2022/04/09 07:18:24;;;;;;;10.90;2.67;;;8.90;99.90;;;;;;4146810;28;20504;-65
2022/04/09 07:20:25;;;;;;;13.25;3.08;;;8.80;99.90;;;;;;4144244;28;20509;-65
2022/04/09 07:22:26;;;;;;;11.10;2.75;;;8.80;99.90;;;;;;4146388;28;20030;-65
2022/04/09 07:24:26;;;;;;;21.25;2.92;;;8.70;99.90;;;;;;4146496;28;20044;-65
2022/04/09 07:26:27;;;;;;;14.75;3.03;;;8.60;99.90;;;;;;4145569;28;20423;-65
2022/04/09 07:28:28;;;;;;;8.02;2.47;;;8.60;99.90;;;;;;4145946;28;20493;-64
2022/04/09 07:30:28;;;;;;;14.07;3.63;;;8.80;99.90;;;;;;4145774;28;20061;-65
2022/04/09 07:32:29;;;;;;;12.98;2.85;;;8.90;99.90;;;;;;4146944;28;20037;-65
2022/04/09 07:34:30;;;;;;;13.07;2.60;;;9.00;99.90;;;;;;4147431;28;20026;-65
2022/04/09 07:36:30;;;;;;;9.88;2.67;;;9.20;99.90;;;;;;4148643;28;20404;-66
2022/04/09 07:38:31;;;;;;;13.23;3.28;;;9.40;99.90;;;;;;4149610;28;20041;-65
2022/04/09 07:40:31;;;;;;;11.75;3.10;;;9.60;99.90;;;;;;4166639;28;20093;-64
2022/04/09 07:42:33;;;;;;;13.15;3.35;;;9.70;99.90;;;;;;4145421;28;20038;-65
2022/04/09 07:44:34;;;;;;;14.35;2.70;;;9.70;99.90;;;;;;4144890;28;20041;-65
2022/04/09 07:46:34;;;;;;;14.30;3.15;;;9.60;99.90;;;;;;4148185;28;20021;-65
2022/04/09 07:48:35;;;;;;;9.27;3.33;;;9.50;99.90;;;;;;4145267;28;20037;-64
2022/04/09 07:50:36;;;;;;;11.10;3.45;;;9.40;99.90;;;;;;4144083;28;20030;-65
2022/04/09 07:52:39;;;;;;;13.25;2.88;;;9.20;99.90;;;;;;4143717;28;20476;-64
2022/04/09 07:54:39;;;;;;;;;;;9.20;99.90;;;;;;4144427;28;20038;-64
2022/04/09 07:56:40;;;;;;;12.63;2.90;;;9.10;99.90;;;;;;4146943;28;19917;-64
2022/04/09 07:58:43;;;;;;;12.40;2.95;;;9.20;99.90;;;;;;4148641;28;20129;-65
2022/04/09 08:00:46;;;;;;;13.02;2.47;;;9.20;99.90;;;;;;4143769;28;21570;-65
2022/04/09 08:02:47;;;;;;;16.83;3.53;;;9.10;99.90;;;;;;4144881;28;20026;-65
2022/04/09 08:04:48;;;;;;;7.70;2.10;;;9.10;99.90;;;;;;4145090;28;20044;-65
2022/04/09 08:06:49;;;;;;;9.60;2.20;;;9.20;99.90;;;;;;4126987;28;20062;-64
2022/04/09 08:08:49;;;;;;;8.48;1.98;;;9.30;99.90;;;;;;4143377;28;20435;-64
2022/04/09 08:10:51;;;;;;;6.22;1.70;;;9.40;99.90;;;;;;4144366;28;20096;-64
2022/04/09 08:12:53;;;;;;;1.90;0.83;;;9.40;99.90;;;;;;4145056;28;20440;-64
2022/04/09 08:14:54;;;;;;;4.28;0.90;;;9.40;99.90;;;;;;4144367;28;20022;-65
2022/04/09 08:16:55;;;;;;;3.80;1.30;;;9.30;99.90;;;;;;4144570;28;20028;-65
2022/04/09 08:18:57;;;;;;;3.75;0.77;;;9.30;99.90;;;;;;4145594;28;20033;-64
2022/04/09 08:20:58;;;;;;;1.45;0.57;;;9.40;99.90;;;;;;4144727;28;20064;-64
2022/04/09 08:23:00;;;;;;;1.42;0.45;;;9.30;99.90;;;;;;4145265;28;20398;-64
2022/04/09 08:25:02;;;;;;;3.08;0.80;;;9.40;99.90;;;;;;4141864;28;20085;-66
2022/04/09 08:27:03;;;;;;;3.10;1.00;;;9.40;99.90;;;;;;4144508;28;20498;-65
2022/04/09 08:29:05;;;;;;;3.67;0.90;;;9.40;99.90;;;;;;4145060;28;20168;-64
2022/04/09 08:31:06;;;;;;;3.40;0.75;;;9.50;99.90;;;;;;4144458;28;20037;-64
2022/04/09 08:33:07;;;;;;;3.95;1.00;;;9.60;99.90;;;;;;4144343;28;20037;-65
2022/04/09 08:35:07;;;;;;;3.58;0.80;;;9.70;99.90;;;;;;4144154;28;20074;-65
2022/04/09 08:37:08;;;;;;;3.88;0.98;;;9.80;99.90;;;;;;4144695;28;20432;-65
2022/04/09 08:39:09;;;;;;;7.03;1.25;;;10.00;99.90;;;;;;4144733;28;20030;-64
2022/04/09 08:41:12;;;;;;;1.98;0.60;;;10.10;99.90;;;;;;4144472;28;20104;-65
2022/04/09 08:43:14;;;;;;;4.53;1.33;;;10.10;99.90;;;;;;4151291;28;20029;-64
2022/04/09 08:45:15;;;;;;;3.95;1.30;;;10.10;99.90;;;;;;4144136;28;20038;-65
2022/04/09 08:47:16;;;;;;;3.22;1.00;;;9.90;99.90;;;;;;4144831;28;20041;-64
2022/04/09 08:49:18;;;;;;;5.72;1.10;;;9.80;99.90;;;;;;4146209;28;20198;-64
2022/04/09 08:51:19;;;;;;;2.80;1.08;;;9.80;99.90;;;;;;4144579;28;20026;-64
2022/04/09 08:53:19;;;;;;;5.32;1.48;;;9.90;99.90;;;;;;4144776;28;20037;-65
2022/04/09 08:55:20;;;;;;;5.88;1.30;;;9.90;99.90;;;;;;4147439;28;20049;-64
2022/04/09 08:57:21;;;;;;;5.75;1.33;;;9.90;99.90;;;;;;4146816;28;20385;-64
2022/04/09 08:59:21;;;;;;;4.82;1.42;;;10.10;99.90;;;;;;4145167;28;20110;-64
2022/04/09 09:01:22;;;;;;;5.80;1.70;;;10.10;99.90;;;;;;4145437;28;20041;-64
2022/04/09 09:03:24;;;;;;;5.97;1.70;;;10.00;99.90;;;;;;4145082;28;20041;-64
2022/04/09 09:05:38;;;;;;;5.20;1.10;;;9.90;99.90;;;;;;4148448;28;20409;-65
2022/04/09 09:07:45;;;;;;;6.75;1.60;;;10.00;99.90;;;;;;4147926;28;20115;-65
2022/04/09 09:09:46;;;;;;;4.70;1.20;;;10.10;99.90;;;;;;4143513;28;20417;-65
2022/04/09 09:11:48;;;;;;;6.38;1.27;;;9.80;99.90;;;;;;4142092;28;20049;-65
2022/04/09 09:13:51;;;;;;;4.10;1.10;;;9.60;99.90;;;;;;4143950;28;20034;-65
2022/04/09 09:15:53;;;;;;;;;;;9.30;99.90;;;;;;4143623;28;20048;-65
2022/04/09 09:17:58;;;;;;;4.55;1.40;;;9.30;99.90;;;;;;4144697;28;19933;-65
2022/04/09 09:19:59;;;;;;;3.72;1.20;;;9.20;99.90;;;;;;4126178;28;20057;-65
2022/04/09 09:22:05;;;;;;;3.72;1.25;;;9.10;99.90;;;;;;4142775;28;20100;-64
2022/04/09 09:24:06;;;;;;;3.65;1.30;;;9.00;99.90;;;;;;4142661;28;20033;-65
2022/04/09 09:26:07;;;;;;;4.05;1.42;;;9.10;99.90;;;;;;4145626;28;20402;-64
2022/04/09 09:28:07;;;;;;;5.63;1.60;;;9.10;99.90;;;;;;4143087;28;20045;-64
2022/04/09 09:30:13;;;;;;;6.20;1.58;;;9.20;99.90;;;;;;4143624;28;20121;-65
2022/04/09 09:32:29;;;;;;;6.38;1.70;;;9.30;99.90;;;;;;4144942;28;20029;-65
2022/04/09 09:34:30;;;;;;;5.70;1.40;;;9.50;99.90;;;;;;4144547;28;20109;-64
2022/04/09 09:36:32;;;;;;;3.55;1.58;;;9.60;99.90;;;;;;4142311;28;20041;-65
2022/04/09 09:38:33;;;;;;;7.25;2.00;;;9.40;99.90;;;;;;4143660;28;20091;-65
2022/04/09 09:40:34;;;;;;;3.97;1.60;;;9.50;99.90;;;;;;4143509;28;20121;-65
2022/04/09 09:42:35;;;;;;;6.18;1.88;;;9.40;99.90;;;;;;4144374;28;20037;-65
2022/04/09 09:44:43;;;;;;;6.13;1.48;;;9.40;99.90;;;;;;4143703;28;20034;-64
2022/04/09 09:46:45;;;;;;;6.18;2.15;;;9.50;99.90;;;;;;4126315;28;20042;-64
2022/04/09 09:48:50;;;;;;;9.50;2.30;;;9.60;99.90;;;;;;4144319;28;20037;-64
2022/04/09 09:50:52;;;;;;;5.65;1.73;;;9.70;99.90;;;;;;4141501;28;20034;-64
2022/04/09 09:53:03;;;;;;;5.15;1.95;;;9.80;99.90;;;;;;4144027;28;20433;-64
2022/04/09 09:55:10;;;;;;;8.07;2.05;;;9.90;99.90;;;;;;4142612;28;20041;-66
2022/04/09 09:57:21;;;;;;;7.50;2.40;;;10.10;99.90;;;;;;4139095;28;20120;-64
2022/04/09 09:59:23;;;;;;;5.70;1.98;;;10.30;99.90;;;;;;4143200;28;20104;-64
2022/04/09 10:01:24;;;;;;;4.03;1.60;;;10.50;99.90;;;;;;4142513;28;20421;-64
2022/04/09 10:03:26;;;;;;;2.90;1.20;;;10.40;99.90;;;;;;4142834;28;20034;-65
2022/04/09 10:05:27;;;;;;;6.50;1.20;;;10.20;99.90;;;;;;4142236;28;20053;-64
2022/04/09 10:07:27;;;;;;;2.78;0.88;;;10.00;99.90;;;;;;4142574;28;20030;-64
2022/04/09 10:09:29;;;;;;;1.15;0.22;;;9.80;99.90;;;;;;4143124;28;20026;-64
2022/04/09 10:11:34;;;;;;;2.30;0.70;;;9.70;99.90;;;;;;4142266;28;20142;-65
2022/04/09 10:13:36;;;;;;;1.80;0.70;;;9.60;99.90;;;;;;4142494;28;20038;-64
2022/04/09 10:15:39;;;;;;;1.27;0.50;;;9.50;99.90;;;;;;4142319;28;20489;-65
2022/04/09 10:17:40;;;;;;;8.38;3.80;;;9.40;99.90;;;;;;4133585;28;20409;-64
2022/04/09 10:19:42;;;;;;;5.43;2.00;;;9.20;99.90;;;;;;4144298;28;20034;-64
2022/04/09 10:21:46;;;;;;;5.90;1.60;;;9.20;99.90;;;;;;4142899;28;20030;-64
2022/04/09 10:23:47;;;;;;;2.47;0.98;;;9.20;99.90;;;;;;4144358;28;20281;-64
2022/04/09 10:25:51;;;;;;;1.58;0.85;;;9.30;99.90;;;;;;4143116;28;20050;-64
2022/04/09 10:27:55;;;;;;;3.40;1.42;;;9.30;99.90;;;;;;4142847;28;20046;-64
2022/04/09 10:30:02;;;;;;;5.43;1.55;;;9.40;99.90;;;;;;4125308;28;20031;-65
2022/04/09 10:32:03;;;;;;;4.53;1.48;;;9.50;99.90;;;;;;4143788;28;20030;-65
2022/04/09 10:34:06;;;;;;;2.35;1.00;;;9.60;99.90;;;;;;4146319;28;20048;-64